Time;durP1;ratioP1;P1;durP2;ratioP2;P2;SDS_P1;SDS_P2;PMS_P1;PMS_P2;Temp;Humidity;BMP_temperature;BMP_pressure;BME280_temperature;BME280_humidity;BME280_pressure;Samples;Min_cycle;Max_cycle;Signal;HPM_P1;HPM_P2
2022/04/08 00:01:25;;;;;;;5.28;1.50;;;;;;;8.41;59.50;98030.44;5021049;28;20044;-40
2022/04/08 00:03:52;;;;;;;3.50;1.20;;;;;;;8.41;59.54;98038.31;5023155;28;20029;-39
2022/04/08 00:06:18;;;;;;;6.93;1.23;;;;;;;8.38;60.21;98034.19;5021274;28;20026;-40
2022/04/08 00:08:44;;;;;;;3.47;1.20;;;;;;;8.34;60.73;98037.22;5026546;28;20437;-39
2022/04/08 00:11:10;;;;;;;4.30;1.40;;;;;;;8.27;60.81;98046.59;5027486;28;20482;-40
2022/04/08 00:13:35;;;;;;;4.30;1.70;;;;;;;8.21;61.30;98069.78;5010497;28;20038;-39
2022/04/08 00:16:01;;;;;;;2.17;1.30;;;;;;;8.14;62.02;98026.78;5009770;28;20509;-39
2022/04/08 00:18:26;;;;;;;4.07;1.60;;;;;;;8.08;62.04;98041.25;5015728;28;20379;-39
2022/04/08 00:20:52;;;;;;;4.07;1.70;;;;;;;8.06;62.13;98045.00;5010590;28;20403;-39
2022/04/08 00:23:17;;;;;;;2.95;1.38;;;;;;;8.03;62.75;98045.25;5026111;28;20053;-40
2022/04/08 00:25:42;;;;;;;4.78;1.70;;;;;;;8.00;62.71;98032.44;5024751;28;20078;-39
2022/04/08 00:28:08;;;;;;;2.22;1.25;;;;;;;7.98;63.04;98026.50;5016169;28;20037;-39
2022/04/08 00:30:34;;;;;;;6.07;1.58;;;;;;;7.95;62.86;98017.16;5005333;28;20041;-40
2022/04/08 00:32:59;;;;;;;2.00;1.27;;;;;;;7.93;63.23;98030.41;5011118;28;20429;-40
2022/04/08 00:35:25;;;;;;;3.30;1.42;;;;;;;7.91;63.24;98034.09;5019033;28;20032;-39
2022/04/08 00:37:51;;;;;;;3.72;1.13;;;;;;;7.89;63.37;98039.47;5008837;28;20544;-40
2022/04/08 00:40:17;;;;;;;3.50;1.50;;;;;;;7.89;63.36;98038.63;4997890;28;20448;-40
2022/04/08 00:42:44;;;;;;;3.35;1.30;;;;;;;7.88;63.71;98040.44;5014814;28;20057;-39
2022/04/08 00:45:10;;;;;;;2.92;1.40;;;;;;;7.84;64.06;98046.09;4998886;28;20062;-40
2022/04/08 00:47:37;;;;;;;3.28;1.52;;;;;;;7.80;64.20;98045.53;5000702;28;20057;-40
2022/04/08 00:50:06;;;;;;;2.95;1.60;;;;;;;7.78;64.49;98064.00;4998590;28;20380;-40
2022/04/08 00:52:33;;;;;;;4.45;1.58;;;;;;;7.75;64.59;98058.22;5010282;28;20033;-40
2022/04/08 00:55:01;;;;;;;4.13;2.28;;;;;;;7.76;64.88;98054.63;5013016;28;20065;-40
2022/04/08 00:57:28;;;;;;;6.40;1.85;;;;;;;7.73;64.98;98062.75;5014641;28;20029;-40
2022/04/08 00:59:54;;;;;;;2.95;1.48;;;;;;;7.70;65.83;98076.13;5018308;28;20053;-39
2022/04/08 01:02:20;;;;;;;3.70;1.50;;;;;;;7.66;65.68;98079.97;5012551;28;20387;-40
2022/04/08 01:04:45;;;;;;;2.38;1.38;;;;;;;7.62;65.87;98074.16;5032323;28;20025;-40
2022/04/08 01:07:11;;;;;;;3.50;1.30;;;;;;;7.61;65.94;98094.28;5020184;28;20434;-40
2022/04/08 01:09:37;;;;;;;2.00;1.10;;;;;;;7.61;65.71;98091.69;5031802;28;20033;-40
2022/04/08 01:12:03;;;;;;;5.45;1.10;;;;;;;7.60;65.81;98097.88;5025453;28;20025;-40
2022/04/08 01:14:29;;;;;;;2.60;1.00;;;;;;;7.57;66.37;98099.91;5011114;28;20117;-40
2022/04/08 01:16:54;;;;;;;2.97;1.27;;;;;;;7.57;66.25;98103.38;5016546;28;20095;-40
2022/04/08 01:19:20;;;;;;;2.95;1.48;;;;;;;7.59;66.64;98147.72;5018780;28;20035;-40
2022/04/08 01:21:45;;;;;;;3.35;1.27;;;;;;;7.59;66.20;98114.53;5033173;28;20040;-39
2022/04/08 01:24:13;;;;;;;1.63;1.13;;;;;;;7.63;66.20;98134.25;5008224;28;20030;-39
2022/04/08 01:26:41;;;;;;;3.35;1.27;;;;;;;7.68;66.39;98159.19;5013791;28;20042;-39
2022/04/08 01:29:07;;;;;;;1.52;0.90;;;;;;;7.66;66.18;98151.47;5036725;28;20480;-40
2022/04/08 01:31:33;;;;;;;3.95;1.20;;;;;;;7.69;66.03;98180.00;5021311;28;20025;-40
2022/04/08 01:33:59;;;;;;;2.03;0.77;;;;;;;7.65;66.51;98183.84;5016817;28;20036;-39
2022/04/08 01:36:25;;;;;;;2.20;0.80;;;;;;;7.59;67.23;98200.91;5012725;28;20069;-40
2022/04/08 01:38:50;;;;;;;3.78;1.10;;;;;;;7.51;67.84;98212.97;5020320;28;20029;-40
2022/04/08 01:41:20;;;;;;;1.48;0.80;;;;;;;-147.11;100.00;61570.13;5013018;28;20115;-41
2022/04/08 01:43:45;;;;;;;1.25;0.70;;;;;;;-147.11;100.00;61570.13;5013881;28;20033;-40
2022/04/08 01:46:11;;;;;;;0.82;0.60;;;;;;;-147.11;100.00;61570.13;5017403;28;20391;-40
2022/04/08 01:48:37;;;;;;;1.33;0.68;;;;;;;-147.11;100.00;61570.13;5032951;28;20029;-39
2022/04/08 01:51:02;;;;;;;0.90;0.63;;;;;;;-147.11;100.00;61570.13;5032788;28;20120;-39
2022/04/08 01:53:28;;;;;;;0.63;0.60;;;;;;;-147.11;100.00;61570.13;5034909;28;20025;-39
2022/04/08 01:55:54;;;;;;;1.65;0.88;;;;;;;-147.11;100.00;61570.13;5022844;28;20372;-40
2022/04/08 01:58:19;;;;;;;1.85;0.70;;;;;;;-147.11;100.00;61570.13;5020794;28;20039;-40
2022/04/08 02:00:45;;;;;;;1.95;0.50;;;;;;;-147.11;100.00;61570.13;5016573;28;20025;-40
2022/04/08 02:03:11;;;;;;;0.93;0.73;;;;;;;-147.11;100.00;61570.13;5011959;28;20041;-40
2022/04/08 02:05:36;;;;;;;1.48;0.70;;;;;;;-147.11;100.00;61570.13;5025016;28;20476;-40
2022/04/08 02:08:02;;;;;;;3.92;0.90;;;;;;;-147.11;100.00;61570.13;5033021;28;20021;-39
2022/04/08 02:10:27;;;;;;;2.83;0.70;;;;;;;-147.11;100.00;61570.13;5033462;28;20079;-39
2022/04/08 02:12:53;;;;;;;1.50;0.73;;;;;;;-147.11;100.00;61570.13;5024014;28;20041;-39
2022/04/08 02:15:29;;;;;;;2.03;1.00;;;;;;;-147.11;100.00;61570.13;5033339;28;20085;-40
2022/04/08 02:17:55;;;;;;;1.73;0.80;;;;;;;-147.11;100.00;61570.13;5017223;28;20030;-40
2022/04/08 02:20:21;;;;;;;1.25;0.80;;;;;;;-147.11;100.00;61570.13;5025198;28;20120;-39
2022/04/08 02:22:46;;;;;;;1.42;0.80;;;;;;;-147.11;100.00;61570.13;5034524;28;20397;-39
2022/04/08 02:25:12;;;;;;;3.30;0.90;;;;;;;-147.11;100.00;61570.13;5026937;28;20391;-39
2022/04/08 02:27:38;;;;;;;1.55;0.90;;;;;;;-147.11;100.00;61570.13;5013681;28;20037;-39
2022/04/08 02:30:04;;;;;;;3.10;1.08;;;;;;;-147.11;100.00;61570.13;5014048;28;20041;-39
2022/04/08 02:32:30;;;;;;;3.05;0.82;;;;;;;-147.11;100.00;61570.13;5018139;28;20030;-39
2022/04/08 02:34:55;;;;;;;2.90;1.05;;;;;;;-147.11;100.00;61570.13;5019715;28;20033;-39
2022/04/08 02:37:21;;;;;;;1.90;1.00;;;;;;;-147.11;100.00;61570.13;5018480;28;20043;-39
2022/04/08 02:39:46;;;;;;;1.92;0.95;;;;;;;-147.11;100.00;61570.13;5014590;28;20034;-39
2022/04/08 02:42:11;;;;;;;1.73;1.00;;;;;;;-147.11;100.00;61570.13;5021572;28;20088;-39
2022/04/08 02:44:37;;;;;;;3.10;1.30;;;;;;;-147.11;100.00;61570.13;5035367;28;20382;-39
2022/04/08 02:47:02;;;;;;;3.28;1.13;;;;;;;-147.11;100.00;61570.13;5025307;28;20041;-39
2022/04/08 02:49:28;;;;;;;3.08;1.10;;;;;;;-147.11;100.00;61570.13;5013879;28;20044;-39
2022/04/08 02:51:53;;;;;;;2.83;1.20;;;;;;;-147.11;100.00;61570.13;5031244;28;20080;-39
2022/04/08 02:54:19;;;;;;;2.60;1.10;;;;;;;-147.11;100.00;61570.13;5015516;28;20056;-39
2022/04/08 02:56:45;;;;;;;3.33;1.08;;;;;;;-147.11;100.00;61570.13;5018059;28;20029;-39
2022/04/08 02:59:10;;;;;;;2.30;1.00;;;;;;;-147.11;100.00;61570.13;5021638;28;20038;-39
2022/04/08 03:01:36;;;;;;;1.92;0.90;;;;;;;-147.11;100.00;61570.13;5015080;28;20107;-39
2022/04/08 03:04:02;;;;;;;1.73;0.80;;;;;;;-147.11;100.00;61570.13;5020580;28;20080;-39
2022/04/08 03:06:27;;;;;;;2.97;0.88;;;;;;;-147.11;100.00;61570.13;5020234;28;20066;-39
2022/04/08 03:08:53;;;;;;;3.70;0.90;;;;;;;-147.11;100.00;61570.13;5029902;28;20030;-39
2022/04/08 03:11:19;;;;;;;3.67;1.13;;;;;;;-147.11;100.00;61570.13;5029927;28;20033;-39
2022/04/08 03:13:45;;;;;;;3.17;0.90;;;;;;;-147.11;100.00;61570.13;5017694;28;20028;-40
2022/04/08 03:16:10;;;;;;;1.55;1.00;;;;;;;-147.11;100.00;61570.13;5032027;28;20029;-39
2022/04/08 03:18:35;;;;;;;2.40;0.70;;;;;;;-147.11;100.00;61570.13;5013254;28;20060;-41
2022/04/08 03:21:01;;;;;;;0.82;0.70;;;;;;;-147.11;100.00;61570.13;5013133;28;20151;-40
2022/04/08 03:23:26;;;;;;;2.17;0.75;;;;;;;-147.11;100.00;61570.13;5034629;28;20394;-39
2022/04/08 03:25:52;;;;;;;2.10;0.80;;;;;;;-147.11;100.00;61570.13;5021890;28;20051;-39
2022/04/08 03:28:17;;;;;;;1.83;0.80;;;;;;;-147.11;100.00;61570.13;5016871;28;20116;-40
2022/04/08 03:30:43;;;;;;;1.48;0.82;;;;;;;-147.11;100.00;61570.13;5002381;28;20029;-40
2022/04/08 03:33:08;;;;;;;1.67;0.70;;;;;;;-147.11;100.00;61570.13;5014148;28;20026;-39
2022/04/08 03:35:34;;;;;;;1.40;0.80;;;;;;;-147.11;100.00;61570.13;5011742;28;20506;-39
2022/04/08 03:38:00;;;;;;;1.45;0.70;;;;;;;-147.11;100.00;61570.13;5027749;28;20029;-40
2022/04/08 03:40:26;;;;;;;2.75;0.90;;;;;;;-147.11;100.00;61570.13;5026425;28;20116;-39
2022/04/08 03:42:51;;;;;;;3.50;0.90;;;;;;;-147.11;100.00;61570.13;5009664;28;20116;-39
2022/04/08 03:45:17;;;;;;;1.92;1.00;;;;;;;6.82;69.12;98537.56;5002873;28;20160;-39
2022/04/08 03:47:42;;;;;;;3.13;0.90;;;;;;;6.82;69.38;98553.22;5023299;28;20025;-40
2022/04/08 03:50:08;;;;;;;2.17;1.30;;;;;;;-147.11;100.00;61570.13;5020981;28;20105;-39
2022/04/08 03:52:33;;;;;;;1.50;0.80;;;;;;;-147.11;100.00;61570.13;5019199;28;20803;-40
2022/04/08 03:55:00;;;;;;;3.55;1.02;;;;;;;6.82;69.14;98581.16;5006397;28;20042;-39
2022/04/08 03:57:26;;;;;;;3.10;1.30;;;;;;;6.82;69.35;98594.25;5014610;28;20036;-39
2022/04/08 03:59:52;;;;;;;1.58;0.90;;;;;;;6.84;69.37;98589.72;5025356;28;20021;-39
2022/04/08 04:02:17;;;;;;;2.00;0.93;;;;;;;6.83;69.25;98588.88;5021065;28;20463;-39
2022/04/08 04:04:43;;;;;;;3.25;1.10;;;;;;;6.84;69.34;98602.81;5011022;28;20402;-39
2022/04/08 04:07:08;;;;;;;4.15;1.10;;;;;;;6.86;68.93;98619.22;5007272;28;20037;-40
2022/04/08 04:09:34;;;;;;;1.95;0.90;;;;;;;6.90;69.08;98612.78;5023398;28;20018;-39
2022/04/08 04:11:59;;;;;;;2.42;0.90;;;;;;;6.94;68.65;98619.44;5012242;28;20038;-40
2022/04/08 04:14:25;;;;;;;3.95;1.52;;;;;;;6.95;68.69;98634.19;4997457;28;20030;-39
2022/04/08 04:16:50;;;;;;;3.60;1.02;;;;;;;6.97;68.51;98650.59;5031628;28;20036;-40
2022/04/08 04:19:17;;;;;;;2.97;1.10;;;;;;;6.96;68.34;98672.44;5027399;28;20639;-40
2022/04/08 04:21:43;;;;;;;3.53;1.10;;;;;;;6.97;68.00;98663.66;5006474;28;20038;-41
2022/04/08 04:24:08;;;;;;;5.55;1.65;;;;;;;6.98;67.57;98667.94;5003347;28;20447;-40
2022/04/08 04:26:34;;;;;;;3.00;1.35;;;;;;;6.99;67.63;98669.63;5013662;28;20038;-41
2022/04/08 04:29:00;;;;;;;2.00;1.08;;;;;;;6.97;67.50;98671.50;5004632;28;20089;-40
2022/04/08 04:31:25;;;;;;;2.97;1.25;;;;;;;6.98;67.65;98698.47;5001065;28;20514;-41
2022/04/08 04:33:50;;;;;;;2.90;1.00;;;;;;;6.98;66.66;98701.94;5018055;28;20390;-41
2022/04/08 04:36:17;;;;;;;3.67;1.00;;;;;;;6.90;66.43;98680.75;4988895;28;20056;-41
2022/04/08 04:38:43;;;;;;;3.00;1.10;;;;;;;6.83;65.98;98695.25;4991914;28;20046;-41
2022/04/08 04:41:09;;;;;;;1.80;0.90;;;;;;;6.81;66.29;98697.97;4993466;28;20122;-40
2022/04/08 04:43:35;;;;;;;1.98;1.00;;;;;;;6.86;66.14;98710.72;4993313;28;20492;-42
2022/04/08 04:46:03;;;;;;;2.88;0.95;;;;;;;6.91;65.80;98711.19;4993744;28;20076;-42
2022/04/08 04:48:28;;;;;;;4.57;0.82;;;;;;;6.97;65.38;98721.19;4994060;28;20027;-42
2022/04/08 04:50:54;;;;;;;2.28;1.20;;;;;;;6.98;65.57;98722.84;4993909;28;20042;-41
2022/04/08 04:53:20;;;;;;;2.67;0.85;;;;;;;6.98;65.19;98725.47;4993943;28;20037;-41
2022/04/08 04:55:45;;;;;;;1.58;0.90;;;;;;;7.00;64.85;98736.66;4993785;28;20380;-42
2022/04/08 04:58:10;;;;;;;3.50;1.00;;;;;;;7.00;64.63;98739.28;4993836;28;20022;-42
2022/04/08 05:00:36;;;;;;;2.45;0.80;;;;;;;7.00;64.18;98743.66;4996700;28;20504;-43
2022/04/08 05:03:01;;;;;;;1.83;0.63;;;;;;;6.97;63.56;98749.94;4998067;28;20105;-41
2022/04/08 05:05:27;;;;;;;3.15;1.10;;;;;;;-147.11;100.00;61570.13;4997959;28;20038;-41
2022/04/08 05:07:52;;;;;;;1.38;0.65;;;;;;;-147.11;100.00;61570.13;4998038;28;20022;-41
2022/04/08 05:10:18;;;;;;;2.67;1.23;;;;;;;-147.11;100.00;61570.13;4997779;28;20061;-43
2022/04/08 05:12:43;;;;;;;2.67;0.90;;;;;;;-147.11;100.00;61570.13;4997948;28;20057;-42
2022/04/08 05:15:12;;;;;;;3.03;0.70;;;;;;;-147.11;100.00;61570.13;4998093;28;20027;-40
2022/04/08 05:17:38;;;;;;;2.08;0.68;;;;;;;-147.11;100.00;61570.13;4997507;28;20034;-40
2022/04/08 05:20:05;;;;;;;6.05;1.00;;;;;;;-147.11;100.00;61570.13;4997360;28;20033;-40
2022/04/08 05:22:32;;;;;;;4.82;1.00;;;;;;;6.90;61.38;98811.47;4998029;28;20038;-40
2022/04/08 05:24:58;;;;;;;4.45;1.10;;;;;;;6.89;61.07;98822.88;4997728;28;20037;-39
2022/04/08 05:27:24;;;;;;;2.22;0.70;;;;;;;-147.11;100.00;61570.13;4997549;28;20030;-40
2022/04/08 05:29:49;;;;;;;2.00;0.70;;;;;;;-147.11;100.00;61570.13;4998307;28;20036;-39
2022/04/08 05:32:15;;;;;;;5.20;0.70;;;;;;;-147.11;100.00;61570.13;4998229;28;20361;-39
2022/04/08 05:34:40;;;;;;;2.97;0.70;;;;;;;-147.11;100.00;61570.13;4997396;28;20030;-40
2022/04/08 05:37:07;;;;;;;3.72;0.88;;;;;;;-147.11;100.00;61570.13;4996963;28;20116;-40
2022/04/08 05:39:32;;;;;;;2.30;0.70;;;;;;;-147.11;100.00;61570.13;4997029;28;20034;-40
2022/04/08 05:41:58;;;;;;;3.40;0.70;;;;;;;-147.11;100.00;61570.13;4997087;28;20038;-40
2022/04/08 05:44:23;;;;;;;4.07;0.90;;;;;;;-147.11;100.00;61570.13;4996990;28;20062;-39
2022/04/08 05:46:48;;;;;;;2.90;0.82;;;;;;;-147.11;100.00;61570.13;4996776;28;20483;-40
2022/04/08 05:49:14;;;;;;;2.50;0.70;;;;;;;-147.11;100.00;61570.13;4996883;28;20034;-40
2022/04/08 05:51:39;;;;;;;3.80;0.95;;;;;;;-147.11;100.00;61570.13;4996927;28;20049;-40
2022/04/08 05:54:05;;;;;;;4.35;0.90;;;;;;;-147.11;100.00;61570.13;4996882;28;20542;-40
2022/04/08 05:56:30;;;;;;;2.67;1.02;;;;;;;-147.11;100.00;61570.13;4995600;28;20026;-43
2022/04/08 05:58:57;;;;;;;3.60;0.90;;;;;;;-147.11;100.00;61570.13;4996799;28;20069;-43
2022/04/08 06:01:23;;;;;;;3.97;0.70;;;;;;;-147.11;100.00;61570.13;4996724;28;20032;-44
2022/04/08 06:03:48;;;;;;;6.90;1.00;;;;;;;-147.11;100.00;61570.13;4996881;28;20121;-44
2022/04/08 06:06:14;;;;;;;2.47;0.75;;;;;;;-147.11;100.00;61570.13;4996835;28;20448;-45
2022/04/08 06:08:39;;;;;;;3.95;0.73;;;;;;;-147.11;100.00;61570.13;4996714;28;20042;-44
2022/04/08 06:11:05;;;;;;;4.40;0.80;;;;;;;-147.11;100.00;61570.13;4996122;28;20378;-44
2022/04/08 06:13:30;;;;;;;2.97;0.65;;;;;;;-147.11;100.00;61570.13;4996273;28;20034;-40
2022/04/08 06:15:56;;;;;;;3.67;1.00;;;;;;;-147.11;100.00;61570.13;4996485;28;20041;-40
2022/04/08 06:18:22;;;;;;;4.22;0.80;;;;;;;-147.11;100.00;61570.13;4996363;28;20022;-41
2022/04/08 06:20:47;;;;;;;7.35;1.00;;;;;;;-147.11;100.00;61570.13;4996261;28;20034;-41
2022/04/08 06:23:13;;;;;;;5.82;0.75;;;;;;;-147.11;100.00;61570.13;4996326;28;20038;-41
2022/04/08 06:25:38;;;;;;;2.55;0.77;;;;;;;-147.11;100.00;61570.13;4996204;28;20407;-42
2022/04/08 06:28:06;;;;;;;5.53;0.82;;;;;;;-147.11;100.00;61570.13;4996155;28;20484;-42
2022/04/08 06:30:36;;;;;;;4.75;0.73;;;;;;;-147.11;100.00;61570.13;4995150;28;20448;-41
2022/04/08 06:33:04;;;;;;;3.20;0.90;;;;;;;-147.11;100.00;61570.13;4996923;28;20034;-41
2022/04/08 06:35:29;;;;;;;4.18;0.85;;;;;;;-147.11;100.00;61570.13;4996105;28;20026;-41
2022/04/08 06:38:02;;;;;;;5.20;0.95;;;;;;;6.84;56.84;98960.97;4995910;28;20404;-41
2022/04/08 06:40:28;;;;;;;5.40;1.17;;;;;;;6.86;56.43;98953.84;4996182;28;20054;-41
2022/04/08 06:42:57;;;;;;;5.00;1.10;;;;;;;6.88;56.35;98972.88;4996035;28;20104;-41
2022/04/08 06:45:31;;;;;;;9.13;1.48;;;;;;;6.90;55.79;98952.66;4995730;28;20483;-40
2022/04/08 06:47:57;;;;;;;5.05;0.93;;;;;;;6.89;55.68;98974.53;4995992;28;20050;-41
2022/04/08 06:50:23;;;;;;;4.57;1.17;;;;;;;6.85;55.61;98979.16;4995771;28;20056;-41
2022/04/08 06:52:49;;;;;;;5.55;0.95;;;;;;;6.83;55.84;98973.19;4995891;28;20026;-41
2022/04/08 06:55:15;;;;;;;7.93;1.48;;;;;;;6.85;55.65;98973.91;4995541;28;20538;-41
2022/04/08 06:57:43;;;;;;;3.17;0.70;;;;;;;6.82;55.73;98989.81;4995537;28;20027;-41
2022/04/08 07:00:11;;;;;;;4.13;1.60;;;;;;;6.83;55.40;98991.50;4995490;28;20120;-40
2022/04/08 07:02:37;;;;;;;11.07;1.02;;;;;;;6.83;55.85;98980.22;4995545;28;20476;-41
2022/04/08 07:05:04;;;;;;;4.10;0.95;;;;;;;6.87;55.77;98989.53;4995471;28;20045;-40
2022/04/08 07:07:33;;;;;;;5.65;1.38;;;;;;;6.90;56.10;99004.16;4995606;28;20038;-40
2022/04/08 07:09:59;;;;;;;7.00;1.38;;;;;;;6.90;56.50;99010.19;4995465;28;20033;-41
2022/04/08 07:12:25;;;;;;;7.75;1.23;;;;;;;6.96;55.97;99024.63;4995272;28;20113;-41
2022/04/08 07:14:51;;;;;;;7.75;1.00;;;;;;;6.97;55.80;99015.81;4995320;28;20030;-40
2022/04/08 07:17:16;;;;;;;5.80;1.20;;;;;;;6.95;56.18;99008.09;4995388;28;20571;-41
2022/04/08 07:19:42;;;;;;;6.13;1.60;;;;;;;6.93;55.97;99017.81;4995587;28;20026;-40
2022/04/08 07:22:08;;;;;;;3.05;0.90;;;;;;;6.87;55.95;99036.56;4994209;28;20368;-39
2022/04/08 07:24:33;;;;;;;5.55;1.80;;;;;;;-147.11;100.00;61570.13;4995116;28;20033;-41
2022/04/08 07:26:58;;;;;;;4.35;0.90;;;;;;;-147.11;100.00;61570.13;4994969;28;20092;-41
2022/04/08 07:29:24;;;;;;;5.18;1.10;;;;;;;-147.11;100.00;61570.13;4994946;28;20058;-41
2022/04/08 07:31:49;;;;;;;8.32;1.20;;;;;;;-147.11;100.00;61570.13;4994994;28;20034;-40
2022/04/08 07:34:15;;;;;;;5.40;1.73;;;;;;;-147.11;100.00;61570.13;4994948;28;20034;-41
2022/04/08 07:36:40;;;;;;;5.78;1.25;;;;;;;6.75;57.21;99053.09;4994924;28;20077;-40
2022/04/08 07:39:06;;;;;;;10.20;1.40;;;;;;;6.82;57.11;99059.59;4994743;28;20041;-42
2022/04/08 07:41:31;;;;;;;8.05;1.20;;;;;;;6.91;56.94;99050.25;4994964;28;20527;-41
2022/04/08 07:43:57;;;;;;;4.70;1.23;;;;;;;6.96;56.89;99062.06;4994862;28;20116;-41
2022/04/08 07:46:22;;;;;;;7.65;1.25;;;;;;;6.98;56.82;99065.44;4994728;28;20031;-46
2022/04/08 07:48:48;;;;;;;9.80;1.23;;;;;;;7.04;56.08;99069.38;4994642;28;20030;-43
2022/04/08 07:51:13;;;;;;;6.20;1.05;;;;;;;7.08;56.20;99077.84;4994647;28;20026;-43
2022/04/08 07:53:39;;;;;;;7.55;2.00;;;;;;;7.12;56.29;99074.09;4994741;28;20031;-43
2022/04/08 07:56:04;;;;;;;6.07;1.00;;;;;;;7.14;56.24;99073.03;4994473;28;20428;-44
2022/04/08 07:58:30;;;;;;;7.38;1.33;;;;;;;7.21;55.82;99089.13;4994143;28;20379;-44
2022/04/08 08:00:55;;;;;;;8.18;1.10;;;;;;;7.24;55.25;99088.09;4994617;28;20097;-44
2022/04/08 08:03:21;;;;;;;10.23;1.30;;;;;;;7.23;54.66;99096.88;4994388;28;20042;-43
2022/04/08 08:05:47;;;;;;;8.50;1.60;;;;;;;7.22;54.34;99085.56;4994757;28;20114;-44
2022/04/08 08:08:12;;;;;;;7.78;1.33;;;;;;;7.21;53.35;99122.31;4994540;28;20112;-44
2022/04/08 08:10:42;;;;;;;8.02;1.30;;;;;;;7.20;53.66;99110.16;4994507;28;20054;-43
2022/04/08 08:13:07;;;;;;;11.52;1.52;;;;;;;7.20;53.23;99121.44;4994374;28;20031;-44
2022/04/08 08:15:36;;;;;;;6.82;1.30;;;;;;;7.21;52.10;99133.59;4994396;28;20032;-46
2022/04/08 08:18:03;;;;;;;8.15;1.50;;;;;;;7.20;51.80;99116.22;4994274;28;20034;-45
2022/04/08 08:20:28;;;;;;;11.90;1.50;;;;;;;7.19;52.26;99124.19;4994270;28;20498;-43
2022/04/08 08:22:54;;;;;;;9.23;1.58;;;;;;;7.18;52.16;99162.59;4994204;28;20030;-44
2022/04/08 08:25:21;;;;;;;10.90;1.55;;;;;;;7.24;52.14;99135.19;4994082;28;20101;-43
2022/04/08 08:28:01;;;;;;;15.32;2.03;;;;;;;7.26;52.24;99126.28;4994084;28;20073;-43
2022/04/08 08:30:32;;;;;;;9.73;1.73;;;;;;;7.35;52.47;99121.31;4994258;28;20022;-43
2022/04/08 08:32:58;;;;;;;9.68;1.67;;;;;;;7.45;52.53;99123.19;4994074;28;20403;-40
2022/04/08 08:35:25;;;;;;;8.55;1.83;;;;;;;7.55;51.34;99123.38;4993930;28;20479;-40
2022/04/08 08:37:51;;;;;;;8.15;1.20;;;;;;;7.61;49.13;99150.91;4993590;28;20057;-40
2022/04/08 08:40:18;;;;;;;10.10;1.40;;;;;;;7.56;49.50;99143.38;4993901;28;20034;-40
2022/04/08 08:42:44;;;;;;;8.48;1.35;;;;;;;7.57;48.81;99138.97;4993857;28;20034;-40
2022/04/08 08:45:12;;;;;;;7.95;1.77;;;;;;;7.55;49.52;99126.00;4994001;28;20026;-40
2022/04/08 08:47:38;;;;;;;10.00;2.15;;;;;;;7.57;49.33;99129.34;4994184;28;20441;-40
2022/04/08 08:50:05;;;;;;;8.52;1.50;;;;;;;7.60;49.59;99144.84;4994046;28;20464;-40
2022/04/08 08:52:31;;;;;;;9.70;1.30;;;;;;;7.66;48.81;99161.03;4994063;28;20045;-40
2022/04/08 08:54:57;;;;;;;10.60;1.50;;;;;;;7.68;47.58;99146.06;4993776;28;20379;-40
2022/04/08 08:57:23;;;;;;;10.38;1.58;;;;;;;7.72;48.00;99152.75;4993936;28;20042;-40
2022/04/08 09:00:00;;;;;;;9.82;1.88;;;;;;;7.81;47.44;99157.31;4993817;28;20534;-40
2022/04/08 09:02:25;;;;;;;10.55;1.55;;;;;;;7.90;47.44;99161.06;4994027;28;20054;-40
2022/04/08 09:04:50;;;;;;;9.70;2.50;;;;;;;7.98;47.07;99158.75;4993831;28;20490;-40
2022/04/08 09:07:22;;;;;;;9.75;1.70;;;;;;;8.05;46.29;99157.34;4994657;28;20031;-40
2022/04/08 09:09:56;;;;;;;9.52;1.35;;;;;;;8.07;46.43;99154.63;4994510;28;20022;-40
2022/04/08 09:12:24;;;;;;;6.97;1.27;;;;;;;8.12;46.29;99191.78;4993869;28;20120;-40
2022/04/08 09:14:50;;;;;;;10.82;1.17;;;;;;;8.13;45.32;99172.50;4993778;28;20022;-40
2022/04/08 09:17:27;;;;;;;11.00;1.73;;;;;;;8.16;45.40;99169.66;4993710;28;20031;-41
2022/04/08 09:19:58;;;;;;;7.72;1.50;;;;;;;8.19;44.59;99172.06;4993663;28;20031;-40
2022/04/08 09:22:33;;;;;;;5.28;1.50;;;;;;;8.21;45.43;99185.91;4993726;28;20023;-40
2022/04/08 09:25:10;;;;;;;11.60;2.35;;;;;;;8.26;45.84;99203.03;4993309;28;20038;-40
2022/04/08 09:27:39;;;;;;;8.52;1.30;;;;;;;8.30;45.60;99204.50;4993504;28;20026;-40
2022/04/08 09:30:05;;;;;;;8.68;1.48;;;;;;;8.33;45.25;99188.56;4993219;28;20058;-41
2022/04/08 09:32:31;;;;;;;9.45;1.42;;;;;;;8.31;44.82;99187.84;4993643;28;20040;-40
2022/04/08 09:34:57;;;;;;;8.60;1.10;;;;;;;8.30;45.08;99173.06;4993626;28;20105;-40
2022/04/08 09:37:23;;;;;;;8.40;1.38;;;;;;;8.32;45.00;99194.75;4993635;28;20026;-40
2022/04/08 09:40:04;;;;;;;20.85;3.08;;;;;;;8.35;45.05;99181.44;4993526;28;20034;-40
2022/04/08 09:42:46;;;;;;;9.70;1.80;;;;;;;8.40;44.72;99181.91;4993521;28;20034;-40
2022/04/08 09:45:13;;;;;;;8.88;1.42;;;;;;;8.42;45.12;99195.75;4993424;28;20365;-40
2022/04/08 09:47:39;;;;;;;8.27;1.30;;;;;;;8.45;44.88;99195.53;4996953;28;20022;-41
2022/04/08 09:50:07;;;;;;;5.93;1.40;;;;;;;8.46;44.51;99191.94;4996888;28;20041;-42
2022/04/08 09:52:33;;;;;;;11.32;1.58;;;;;;;8.45;44.97;99203.38;4996906;28;20396;-40
2022/04/08 09:55:03;;;;;;;8.30;1.50;;;;;;;8.44;45.00;99191.22;4997057;28;20025;-41
2022/04/08 09:57:35;;;;;;;7.10;1.25;;;;;;;8.47;45.17;99208.53;4996938;28;20038;-40
2022/04/08 10:00:01;;;;;;;8.15;1.55;;;;;;;8.48;45.41;99213.69;4996810;28;20120;-41
2022/04/08 10:02:28;;;;;;;7.20;1.50;;;;;;;8.51;45.31;99208.22;4996679;28;20062;-40
2022/04/08 10:04:55;;;;;;;7.55;1.13;;;;;;;8.56;45.08;99188.66;4996592;28;20034;-40
2022/04/08 10:07:21;;;;;;;8.32;1.50;;;;;;;8.63;44.48;99195.16;4997155;28;20030;-41
2022/04/08 10:09:58;;;;;;;8.02;1.35;;;;;;;8.67;44.39;99188.72;4996636;28;20097;-41
2022/04/08 10:12:40;;;;;;;9.48;1.30;;;;;;;8.77;43.64;99189.69;4996652;28;20030;-41
2022/04/08 10:15:16;;;;;;;7.32;1.25;;;;;;;8.81;43.18;99254.09;4996580;28;20057;-40
2022/04/08 10:17:42;;;;;;;7.07;1.38;;;;;;;8.85;43.29;99184.69;4996489;28;20026;-42
2022/04/08 10:20:22;;;;;;;5.60;1.13;;;;;;;9.00;42.00;99197.59;4995353;28;20027;-40
2022/04/08 10:22:48;;;;;;;7.50;1.10;;;;;;;9.05;41.74;99232.22;4996597;28;20180;-41
2022/04/08 10:25:16;;;;;;;4.75;1.10;;;;;;;9.08;40.23;99213.63;4996153;28;20039;-41
2022/04/08 10:27:43;;;;;;;7.97;1.38;;;;;;;9.04;40.60;99220.03;4996470;28;20018;-40
2022/04/08 10:30:20;;;;;;;9.80;1.48;;;;;;;8.99;39.66;99220.41;4996401;28;20026;-41
2022/04/08 10:32:47;;;;;;;4.75;1.08;;;;;;;8.93;39.28;99212.16;4996249;28;20030;-40
2022/04/08 10:35:19;;;;;;;4.82;1.52;;;;;;;8.87;40.10;99204.72;4996244;28;20065;-40
2022/04/08 10:38:14;;;;;;;4.95;1.08;;;;;;;8.90;41.11;99202.75;4996018;28;20353;-41
2022/04/08 10:40:40;;;;;;;5.43;1.77;;;;;;;9.00;40.45;99202.84;4999688;28;20042;-40
2022/04/08 10:43:11;;;;;;;6.90;1.02;;;;;;;9.04;40.76;99208.72;4995795;28;20026;-40
2022/04/08 10:45:37;;;;;;;4.40;0.95;;;;;;;9.10;41.43;99208.25;4995805;28;20033;-42
2022/04/08 10:48:09;;;;;;;6.95;1.20;;;;;;;9.16;41.75;99202.53;4996749;28;20026;-41
2022/04/08 10:50:35;;;;;;;6.60;1.13;;;;;;;9.24;41.57;99209.81;4996181;28;20440;-41
2022/04/08 10:53:10;;;;;;;3.97;0.85;;;;;;;9.30;41.63;99185.75;4996035;28;20057;-41
2022/04/08 10:55:53;;;;;;;7.15;1.52;;;;;;;9.32;41.58;99199.56;4995925;28;20030;-41
2022/04/08 10:58:49;;;;;;;10.50;2.25;;;;;;;9.37;40.90;99194.78;4996054;28;20026;-40
2022/04/08 11:01:25;;;;;;;5.70;1.30;;;;;;;9.38;39.52;99190.38;4994684;28;20396;-42
2022/04/08 11:04:04;;;;;;;4.25;1.00;;;;;;;9.39;39.42;99194.66;4996225;28;20026;-40
2022/04/08 11:06:32;;;;;;;5.85;1.00;;;;;;;9.35;40.85;99230.81;4995725;28;20030;-40
2022/04/08 11:09:08;;;;;;;7.50;1.35;;;;;;;9.35;41.61;99233.44;4996134;28;20511;-40
2022/04/08 11:11:39;;;;;;;2.90;0.75;;;;;;;9.31;42.05;99200.50;4995963;28;20110;-40
2022/04/08 11:14:06;;;;;;;4.40;0.88;;;;;;;9.28;42.94;99200.78;4995874;28;20037;-40
2022/04/08 11:16:37;;;;;;;5.32;1.35;;;;;;;9.25;43.26;99208.88;4995551;28;20435;-41
2022/04/08 11:19:11;;;;;;;4.20;1.23;;;;;;;9.33;43.10;99219.59;4995366;28;20472;-41
2022/04/08 11:21:38;;;;;;;5.63;0.90;;;;;;;9.34;43.22;99226.53;4994088;28;20038;-41
2022/04/08 11:24:09;;;;;;;3.00;0.77;;;;;;;9.34;43.36;99225.72;4995159;28;20093;-41
2022/04/08 11:26:45;;;;;;;4.03;0.98;;;;;;;9.32;43.39;99227.59;4995152;28;20515;-41
2022/04/08 11:29:15;;;;;;;3.80;0.80;;;;;;;9.27;43.17;99220.91;4995113;28;20504;-40